Time;durP1;ratioP1;P1;durP2;ratioP2;P2;SDS_P1;SDS_P2;PMS_P1;PMS_P2;Temp;Humidity;BMP_temperature;BMP_pressure;BME280_temperature;BME280_humidity;BME280_pressure;Samples;Min_cycle;Max_cycle;Signal;HPM_P1;HPM_P2
2023/12/02 00:00:09;;;;;;;;;;;;;;;;;;5054516;28;19909;-75
2023/12/02 00:02:35;;;;;;;;;;;;;;;;;;5054903;28;19913;-74
2023/12/02 00:05:01;;;;;;;;;;;;;;;;;;5054717;28;19975;-74
2023/12/02 00:07:27;;;;;;;;;;;;;;;;;;5053536;28;20273;-75
2023/12/02 00:09:53;;;;;;;;;;;;;;;;;;5054743;28;19908;-75
2023/12/02 00:12:19;;;;;;;;;;;;;;;;;;5054646;28;19909;-75
2023/12/02 00:14:45;;;;;;;;;;;;;;;;;;5054166;28;19916;-74
2023/12/02 00:17:11;;;;;;;;;;;;;;;;;;5054612;28;19909;-74
2023/12/02 00:19:37;;;;;;;;;;;;;;;;;;5054573;28;19999;-74
2023/12/02 00:22:04;;;;;;;;;;;;;;;;;;5054131;28;19909;-74
2023/12/02 00:24:30;;;;;;;;;;;;;;;;;;5054291;28;19942;-75
2023/12/02 00:26:56;;;;;;;;;;;;;;;;;;5054134;28;20365;-75
2023/12/02 00:29:22;;;;;;;;;;;;;;;;;;5054481;28;20372;-75
2023/12/02 00:31:48;;;;;;;;;;;;;;;;;;5054402;28;20430;-74
2023/12/02 00:34:14;;;;;;;;;;;;;;;;;;5051704;28;20013;-77
2023/12/02 00:36:41;;;;;;;;;;;;;;;;;;5053484;28;19954;-74
2023/12/02 00:39:07;;;;;;;;;;;;;;;;;;5053916;28;20315;-74
2023/12/02 00:41:33;;;;;;;;;;;;;;;;;;5053709;28;20250;-74
2023/12/02 00:43:59;;;;;;;;;;;;;;;;;;5054106;28;20285;-77
2023/12/02 00:46:24;;;;;;;;;;;;;;;;;;5054577;28;20277;-77
2023/12/02 00:48:50;;;;;;;;;;;;;;;;;;5053729;28;20341;-74
2023/12/02 00:51:16;;;;;;;;;;;;;;;;;;5053975;28;19909;-76
2023/12/02 00:53:42;;;;;;;;;;;;;;;;;;5054006;28;19909;-76
2023/12/02 00:56:08;;;;;;;;;;;;;;;;;;5053608;28;20369;-76
2023/12/02 00:58:34;;;;;;;;;;;;;;;;;;5053896;28;20261;-76
2023/12/02 01:01:00;;;;;;;;;;;;;;;;;;5053904;28;20355;-74
2023/12/02 01:03:26;;;;;;;;;;;;;;;;;;5053426;28;20296;-74
2023/12/02 01:05:52;;;;;;;;;;;;;;;;;;5054029;28;20306;-74
2023/12/02 01:08:18;;;;;;;;;;;;;;;;;;5053792;28;20320;-74
2023/12/02 01:10:44;;;;;;;;;;;;;;;;;;5053531;28;20280;-74
2023/12/02 01:13:10;;;;;;;;;;;;;;;;;;5054338;28;20359;-74
2023/12/02 01:15:36;;;;;;;;;;;;;;;;;;5053609;28;19931;-75
2023/12/02 01:18:02;;;;;;;;;;;;;;;;;;5053278;28;19909;-75
2023/12/02 01:20:28;;;;;;;;;;;;;;;;;;5053534;28;19928;-74
2023/12/02 01:22:54;;;;;;;;;;;;;;;;;;5053331;28;19917;-74
2023/12/02 01:25:20;;;;;;;;;;;;;;;;;;5053289;28;19931;-74
2023/12/02 01:27:46;;;;;;;;;;;;;;;;;;5053583;28;20012;-75
2023/12/02 01:30:11;;;;;;;;;;;;;;;;;;5053171;28;19913;-75
2023/12/02 01:32:37;;;;;;;;;;;;;;;;;;5053568;28;19919;-75
2023/12/02 01:35:03;;;;;;;;;;;;;;;;;;5053478;28;19971;-74
2023/12/02 01:37:29;;;;;;;;;;;;;;;;;;5053050;28;19967;-74
2023/12/02 01:39:55;;;;;;;;;;;;;;;;;;5053462;28;19913;-75
2023/12/02 01:42:21;;;;;;;;;;;;;;;;;;5053482;28;20012;-75
2023/12/02 01:44:47;;;;;;;;;;;;;;;;;;5052913;28;19940;-75
2023/12/02 01:47:13;;;;;;;;;;;;;;;;;;5053419;28;20316;-74
2023/12/02 01:49:39;;;;;;;;;;;;;;;;;;5053329;28;19909;-74
2023/12/02 01:52:05;;;;;;;;;;;;;;;;;;5053021;28;19916;-74
2023/12/02 01:54:31;;;;;;;;;;;;;;;;;;5053321;28;20272;-74
2023/12/02 01:56:57;;;;;;;;;;;;;;;;;;5053411;28;20288;-74
2023/12/02 01:59:23;;;;;;;;;;;;;;;;;;5052846;28;19909;-74
2023/12/02 02:01:49;;;;;;;;;;;;;;;;;;5053243;28;20380;-75
2023/12/02 02:04:15;;;;;;;;;;;;;;;;;;5053700;28;20364;-74
2023/12/02 02:06:40;;;;;;;;;;;;;;;;;;5052715;28;20284;-74
2023/12/02 02:09:06;;;;;;;;;;;;;;;;;;5053139;28;20352;-75
2023/12/02 02:11:32;;;;;;;;;;;;;;;;;;5053225;28;20323;-74
2023/12/02 02:13:58;;;;;;;;;;;;;;;;;;5052762;28;20269;-74
2023/12/02 02:16:24;;;;;;;;;;;;;;;;;;5053083;28;20016;-74
2023/12/02 02:18:50;;;;;;;;;;;;;;;;;;5053440;28;20307;-74
2023/12/02 02:21:16;;;;;;;;;;;;;;;;;;5052776;28;19995;-74
2023/12/02 02:23:42;;;;;;;;;;;;;;;;;;5051594;28;20377;-74
2023/12/02 02:26:08;;;;;;;;;;;;;;;;;;5053270;28;19966;-74
2023/12/02 02:28:34;;;;;;;;;;;;;;;;;;5052695;28;19913;-75
2023/12/02 02:31:00;;;;;;;;;;;;;;;;;;5054840;28;19909;-75
2023/12/02 02:33:26;;;;;;;;;;;;;;;;;;5056341;28;19908;-75
2023/12/02 02:35:52;;;;;;;;;;;;;;;;;;5056591;28;19909;-75
2023/12/02 02:38:18;;;;;;;;;;;;;;;;;;5056952;28;19982;-76
2023/12/02 02:40:44;;;;;;;;;;;;;;;;;;5056571;28;20321;-74
2023/12/02 02:43:11;;;;;;;;;;;;;;;;;;5056390;28;19920;-75
2023/12/02 02:45:37;;;;;;;;;;;;;;;;;;5056462;28;19919;-75
2023/12/02 02:48:03;;;;;;;;;;;;;;;;;;5056152;28;19909;-75
2023/12/02 02:50:29;;;;;;;;;;;;;;;;;;5056472;28;19909;-74
2023/12/02 02:52:54;;;;;;;;;;;;;;;;;;5056397;28;20410;-75
2023/12/02 02:55:20;;;;;;;;;;;;;;;;;;5056277;28;20371;-75
2023/12/02 02:57:46;;;;;;;;;;;;;;;;;;5056166;28;19909;-75
2023/12/02 03:00:12;;;;;;;;;;;;;;;;;;5056167;28;19915;-75
2023/12/02 03:02:38;;;;;;;;;;;;;;;;;;5055807;28;19913;-75
2023/12/02 03:05:04;;;;;;;;;;;;;;;;;;5055968;28;19960;-76
2023/12/02 03:07:30;;;;;;;;;;;;;;;;;;5056034;28;19909;-76
2023/12/02 03:09:56;;;;;;;;;;;;;;;;;;5055578;28;19909;-76
2023/12/02 03:12:22;;;;;;;;;;;;;;;;;;5055909;28;20419;-75
2023/12/02 03:14:48;;;;;;;;;;;;;;;;;;5055998;28;19912;-75
2023/12/02 03:17:14;;;;;;;;;;;;;;;;;;5055421;28;19909;-75
2023/12/02 03:19:40;;;;;;;;;;;;;;;;;;5055785;28;19979;-75
2023/12/02 03:22:06;;;;;;;;;;;;;;;;;;5055782;28;20365;-75
2023/12/02 03:24:32;;;;;;;;;;;;;;;;;;5055119;28;19921;-76
2023/12/02 03:26:58;;;;;;;;;;;;;;;;;;5055828;28;19943;-75
2023/12/02 03:29:24;;;;;;;;;;;;;;;;;;5055462;28;20377;-75
2023/12/02 03:31:50;;;;;;;;;;;;;;;;;;5055249;28;19909;-76
2023/12/02 03:34:16;;;;;;;;;;;;;;;;;;5055802;28;19954;-75
2023/12/02 03:36:42;;;;;;;;;;;;;;;;;;5055083;28;20002;-75
2023/12/02 03:39:12;;;;;;;;;;;;;;;;;;5055494;28;19912;-76
2023/12/02 03:41:38;;;;;;;;;;;;;;;;;;5055340;28;19913;-76
2023/12/02 03:44:04;;;;;;;;;;;;;;;;;;5055041;28;20012;-76
2023/12/02 03:46:30;;;;;;;;;;;;;;;;;;5055275;28;19943;-75
2023/12/02 03:48:57;;;;;;;;;;;;;;;;;;5053897;28;19915;-75
2023/12/02 03:51:23;;;;;;;;;;;;;;;;;;5054705;28;19909;-75
2023/12/02 03:53:49;;;;;;;;;;;;;;;;;;5055168;28;20007;-75
2023/12/02 03:56:15;;;;;;;;;;;;;;;;;;5054909;28;20359;-75
2023/12/02 03:58:41;;;;;;;;;;;;;;;;;;5054616;28;19909;-76
2023/12/02 04:01:07;;;;;;;;;;;;;;;;;;5055027;28;19908;-76
2023/12/02 04:03:33;;;;;;;;;;;;;;;;;;5054751;28;19917;-76
2023/12/02 04:05:59;;;;;;;;;;;;;;;;;;5054396;28;19931;-75
2023/12/02 04:08:25;;;;;;;;;;;;;;;;;;5055056;28;19909;-76
2023/12/02 04:10:51;;;;;;;;;;;;;;;;;;5054815;28;19948;-76
2023/12/02 04:13:17;;;;;;;;;;;;;;;;;;5054340;28;19932;-76
2023/12/02 04:15:44;;;;;;;;;;;;;;;;;;5054651;28;19909;-75
2023/12/02 04:18:10;;;;;;;;;;;;;;;;;;5054727;28;19908;-75
2023/12/02 04:20:36;;;;;;;;;;;;;;;;;;5054222;28;19908;-75
2023/12/02 04:23:02;;;;;;;;;;;;;;;;;;5054501;28;19927;-75
2023/12/02 04:25:28;;;;;;;;;;;;;;;;;;5054532;28;20365;-75
2023/12/02 04:27:54;;;;;;;;;;;;;;;;;;5054164;28;20369;-75
2023/12/02 04:30:20;;;;;;;;;;;;;;;;;;5054458;28;19913;-75
2023/12/02 04:32:46;;;;;;;;;;;;;;;;;;5054474;28;19909;-76
2023/12/02 04:35:12;;;;;;;;;;;;;;;;;;5053987;28;20292;-76
2023/12/02 04:37:38;;;;;;;;;;;;;;;;;;5054829;28;20313;-76
2023/12/02 04:40:09;;;;;;;;;;;;;;;;;;5053844;28;20317;-76
2023/12/02 04:42:35;;;;;;;;;;;;;;;;;;5054266;28;20012;-76
2023/12/02 04:45:01;;;;;;;;;;;;;;;;;;5054073;28;20012;-76
2023/12/02 04:47:27;;;;;;;;;;;;;;;;;;5053732;28;20408;-75
2023/12/02 04:49:53;;;;;;;;;;;;;;;;;;5054106;28;19909;-75
2023/12/02 04:52:19;;;;;;;;;;;;;;;;;;5054149;28;19909;-75
2023/12/02 04:54:45;;;;;;;;;;;;;;;;;;5053167;28;20423;-75
2023/12/02 04:57:11;;;;;;;;;;;;;;;;;;5054034;28;19915;-75
2023/12/02 04:59:37;;;;;;;;;;;;;;;;;;5052601;28;20107;-77
2023/12/02 05:02:03;;;;;;;;;;;;;;;;;;5053536;28;19935;-76
2023/12/02 05:04:29;;;;;;;;;;;;;;;;;;5053812;28;19924;-76
2023/12/02 05:06:55;;;;;;;;;;;;;;;;;;5052598;28;19909;-76
2023/12/02 05:09:21;;;;;;;;;;;;;;;;;;5053576;28;20369;-76
2023/12/02 05:11:47;;;;;;;;;;;;;;;;;;5053737;28;19909;-76
2023/12/02 05:14:13;;;;;;;;;;;;;;;;;;5053804;28;19919;-76
2023/12/02 05:16:39;;;;;;;;;;;;;;;;;;5053399;28;19908;-76
2023/12/02 05:19:05;;;;;;;;;;;;;;;;;;5053811;28;20384;-76
2023/12/02 05:21:31;;;;;;;;;;;;;;;;;;5053775;28;20392;-76
2023/12/02 05:23:57;;;;;;;;;;;;;;;;;;5052950;28;20402;-76
2023/12/02 05:26:23;;;;;;;;;;;;;;;;;;5053634;28;20285;-76
2023/12/02 05:28:49;;;;;;;;;;;;;;;;;;5053608;28;19932;-77
2023/12/02 05:31:15;;;;;;;;;;;;;;;;;;5053173;28;20276;-76
2023/12/02 05:33:40;;;;;;;;;;;;;;;;;;5053548;28;20349;-76
2023/12/02 05:36:06;;;;;;;;;;;;;;;;;;5053494;28;20003;-74
2023/12/02 05:38:32;;;;;;;;;;;;;;;;;;5053042;28;19955;-75
2023/12/02 05:40:58;;;;;;;;;;;;;;;;;;5053701;28;19916;-75
2023/12/02 05:43:24;;;;;;;;;;;;;;;;;;5053038;28;19917;-75
2023/12/02 05:45:50;;;;;;;;;;;;;;;;;;5053493;28;19959;-75
2023/12/02 05:48:16;;;;;;;;;;;;;;;;;;5053476;28;20353;-75
2023/12/02 05:50:42;;;;;;;;;;;;;;;;;;5053034;28;20416;-75
2023/12/02 05:53:08;;;;;;;;;;;;;;;;;;5053512;28;19912;-75
2023/12/02 05:55:34;;;;;;;;;;;;;;;;;;5053730;28;19920;-75
2023/12/02 05:58:00;;;;;;;;;;;;;;;;;;5053079;28;19909;-75
2023/12/02 06:00:26;;;;;;;;;;;;;;;;;;5053336;28;20300;-74
2023/12/02 06:02:52;;;;;;;;;;;;;;;;;;5053477;28;19932;-75
2023/12/02 06:05:18;;;;;;;;;;;;;;;;;;5051684;28;19921;-75
2023/12/02 06:07:44;;;;;;;;;;;;;;;;;;5057175;28;19931;-76
2023/12/02 06:10:10;;;;;;;;;;;;;;;;;;5057129;28;19909;-75
2023/12/02 06:12:36;;;;;;;;;;;;;;;;;;5056694;28;19995;-75
2023/12/02 06:15:01;;;;;;;;;;;;;;;;;;5057198;28;19908;-75
2023/12/02 06:17:27;;;;;;;;;;;;;;;;;;5056995;28;20270;-75
2023/12/02 06:19:53;;;;;;;;;;;;;;;;;;5056760;28;20288;-75
2023/12/02 06:22:19;;;;;;;;;;;;;;;;;;5056829;28;20353;-75
2023/12/02 06:24:45;;;;;;;;;;;;;;;;;;5056844;28;20381;-76
2023/12/02 06:27:11;;;;;;;;;;;;;;;;;;5056512;28;19951;-76
2023/12/02 06:29:37;;;;;;;;;;;;;;;;;;5056842;28;19952;-76
2023/12/02 06:32:03;;;;;;;;;;;;;;;;;;5056781;28;20354;-76
2023/12/02 06:34:30;;;;;;;;;;;;;;;;;;5056248;28;20380;-76
2023/12/02 06:36:56;;;;;;;;;;;;;;;;;;5056655;28;19955;-75
2023/12/02 06:39:21;;;;;;;;;;;;;;;;;;5056702;28;19909;-76
2023/12/02 06:41:47;;;;;;;;;;;;;;;;;;5056095;28;20007;-76
2023/12/02 06:44:14;;;;;;;;;;;;;;;;;;5056411;28;19924;-75
2023/12/02 06:46:39;;;;;;;;;;;;;;;;;;5056258;28;20375;-75
2023/12/02 06:49:05;;;;;;;;;;;;;;;;;;5056296;28;19912;-75
2023/12/02 06:51:32;;;;;;;;;;;;;;;;;;5054944;28;19909;-75
2023/12/02 06:53:58;;;;;;;;;;;;;;;;;;5055830;28;19983;-75
2023/12/02 06:56:23;;;;;;;;;;;;;;;;;;5056674;28;20250;-75
2023/12/02 06:58:49;;;;;;;;;;;;;;;;;;5056142;28;20369;-76
2023/12/02 07:01:15;;;;;;;;;;;;;;;;;;5055716;28;19909;-75
2023/12/02 07:03:41;;;;;;;;;;;;;;;;;;5056015;28;19959;-75
2023/12/02 07:06:07;;;;;;;;;;;;;;;;;;5056184;28;19917;-76
2023/12/02 07:08:33;;;;;;;;;;;;;;;;;;5055786;28;19916;-76
2023/12/02 07:10:59;;;;;;;;;;;;;;;;;;5056220;28;19909;-75
2023/12/02 07:13:25;;;;;;;;;;;;;;;;;;5055907;28;20373;-75
2023/12/02 07:15:51;;;;;;;;;;;;;;;;;;5055490;28;19909;-75
2023/12/02 07:18:17;;;;;;;;;;;;;;;;;;5055702;28;19908;-76
2023/12/02 07:20:43;;;;;;;;;;;;;;;;;;5055810;28;19927;-75
2023/12/02 07:23:09;;;;;;;;;;;;;;;;;;5055062;28;20391;-75
2023/12/02 07:25:35;;;;;;;;;;;;;;;;;;5055743;28;20387;-76
2023/12/02 07:28:01;;;;;;;;;;;;;;;;;;5055711;28;19909;-76
2023/12/02 07:30:27;;;;;;;;;;;;;;;;;;5055339;28;19913;-76
2023/12/02 07:32:53;;;;;;;;;;;;;;;;;;5055519;28;19909;-76
2023/12/02 07:35:19;;;;;;;;;;;;;;;;;;5055516;28;19915;-76
2023/12/02 07:37:47;;;;;;;;;;;;;;;;;;5055089;28;19962;-76
2023/12/02 07:40:13;;;;;;;;;;;;;;;;;;5055294;28;19909;-76
2023/12/02 07:42:39;;;;;;;;;;;;;;;;;;5055530;28;20375;-76
2023/12/02 07:45:05;;;;;;;;;;;;;;;;;;5054874;28;20428;-76
2023/12/02 07:47:31;;;;;;;;;;;;;;;;;;5055293;28;19909;-75
2023/12/02 07:49:57;;;;;;;;;;;;;;;;;;5055015;28;19916;-75
2023/12/02 07:52:23;;;;;;;;;;;;;;;;;;5055188;28;19909;-75
2023/12/02 07:54:49;;;;;;;;;;;;;;;;;;5055302;28;20403;-75
2023/12/02 07:57:15;;;;;;;;;;;;;;;;;;5054530;28;20372;-75
2023/12/02 07:59:41;;;;;;;;;;;;;;;;;;5054913;28;19912;-75
2023/12/02 08:02:07;;;;;;;;;;;;;;;;;;5055032;28;19909;-75
2023/12/02 08:04:33;;;;;;;;;;;;;;;;;;5054479;28;19944;-75
2023/12/02 08:06:59;;;;;;;;;;;;;;;;;;5054964;28;19909;-75
2023/12/02 08:09:25;;;;;;;;;;;;;;;;;;5054791;28;19908;-75
2023/12/02 08:11:51;;;;;;;;;;;;;;;;;;5054461;28;19909;-75
2023/12/02 08:14:17;;;;;;;;;;;;;;;;;;5054756;28;19916;-75
2023/12/02 08:16:43;;;;;;;;;;;;;;;;;;5053415;28;20365;-74
2023/12/02 08:19:09;;;;;;;;;;;;;;;;;;5054328;28;20415;-75
2023/12/02 08:21:35;;;;;;;;;;;;;;;;;;5054790;28;19909;-77
2023/12/02 08:24:01;;;;;;;;;;;;;;;;;;5054263;28;19961;-75
2023/12/02 08:26:27;;;;;;;;;;;;;;;;;;5054070;28;20040;-76
2023/12/02 08:28:53;;;;;;;;;;;;;;;;;;5053933;28;19916;-77
2023/12/02 08:31:19;;;;;;;;;;;;;;;;;;5054530;28;20385;-77
2023/12/02 08:33:45;;;;;;;;;;;;;;;;;;5053939;28;19909;-76
2023/12/02 08:36:11;;;;;;;;;;;;;;;;;;5051572;28;19923;-77
2023/12/02 08:38:37;;;;;;;;;;;;;;;;;;5054042;28;19909;-76
2023/12/02 08:41:03;;;;;;;;;;;;;;;;;;5053833;28;19916;-76
2023/12/02 08:43:29;;;;;;;;;;;;;;;;;;5054104;28;20284;-76
2023/12/02 08:45:54;;;;;;;;;;;;;;;;;;5054193;28;19917;-76
2023/12/02 08:48:20;;;;;;;;;;;;;;;;;;5053688;28;19909;-76
2023/12/02 08:50:46;;;;;;;;;;;;;;;;;;5054289;28;19948;-76
2023/12/02 08:53:12;;;;;;;;;;;;;;;;;;5054145;28;19909;-76
2023/12/02 08:55:38;;;;;;;;;;;;;;;;;;5054257;28;20000;-76
2023/12/02 08:58:04;;;;;;;;;;;;;;;;;;5053901;28;19909;-77
2023/12/02 09:00:30;;;;;;;;;;;;;;;;;;5053742;28;19913;-77
2023/12/02 09:02:56;;;;;;;;;;;;;;;;;;5054511;28;19908;-77
2023/12/02 09:06:43;;;;;;;;;;;;;;;;;;5091618;27;19916;-75
2023/12/02 09:09:09;;;;;;;;;;;;;;;;;;5090750;28;20028;-75
2023/12/02 09:15:19;;;;;;;;;;;;;;;;;;5091222;27;19912;-75
2023/12/02 09:19:41;;;;;;;;;;;;;;;;;;5111562;27;20295;-75
2023/12/02 09:22:07;;;;;;;;;;;;;;;;;;5111141;28;19918;-75
2023/12/02 09:24:59;;;;;;;;;;;;;;;;;;5091585;27;19919;-75
2023/12/02 09:27:25;;;;;;;;;;;;;;;;;;5091234;28;19912;-76
2023/12/02 09:30:15;;;;;;;;;;;;;;;;;;5091057;27;19917;-76
2023/12/02 09:32:41;;;;;;;;;;;;;;;;;;5091349;28;20010;-76
2023/12/02 09:36:45;;;;;;;;;;;;;;;;;;5111417;27;20390;-75
2023/12/02 09:41:27;;;;;;;;;;;;;;;;;;5112412;27;19916;-75
2023/12/02 09:47:22;;;;;;;;;;;;;;;;;;5071829;28;19916;-75
2023/12/02 09:49:47;;;;;;;;;;;;;;;;;;5069339;28;20288;-75
2023/12/02 09:52:13;;;;;;;;;;;;;;;;;;5070933;28;19912;-75
2023/12/02 09:54:39;;;;;;;;;;;;;;;;;;5069545;28;19912;-75
2023/12/02 09:58:39;;;;;;;;;;;;;;;;;;5090878;27;19916;-75
2023/12/02 10:03:52;;;;;;;;;;;;;;;;;;5091321;27;19916;-76
2023/12/02 10:06:18;;;;;;;;;;;;;;;;;;5091236;28;20003;-76
2023/12/02 10:10:40;;;;;;;;;;;;;;;;;;5131847;27;19933;-76
2023/12/02 10:13:05;;;;;;;;;;;;;;;;;;5132084;28;20008;-76
2023/12/02 10:15:32;;;;;;;;;;;;;;;;;;5132091;27;20394;-76
2023/12/02 10:17:58;;;;;;;;;;;;;;;;;;5131646;27;19908;-76
2023/12/02 10:20:24;;;;;;;;;;;;;;;;;;5131923;27;19907;-76
2023/12/02 10:23:12;;;;;;;;;;;;;;;;;;5091834;28;20296;-75
2023/12/02 10:25:38;;;;;;;;;;;;;;;;;;5090896;28;20003;-75
2023/12/02 10:28:04;;;;;;;;;;;;;;;;;;5091069;28;19908;-76
2023/12/02 10:32:11;;;;;;;;;;;;;;;;;;5091526;27;20288;-75
2023/12/02 10:36:10;;;;;;;;;;;;;;;;;;5112147;27;19916;-76
2023/12/02 10:38:36;;;;;;;;;;;;;;;;;;5111638;28;20003;-76
2023/12/02 10:43:19;;;;;;;;;;;;;;;;;;5091576;28;19923;-76
2023/12/02 10:45:58;;;;;;;;;;;;;;;;;;5111460;27;20029;-76
2023/12/02 10:48:24;;;;;;;;;;;;;;;;;;5111613;28;20003;-76
2023/12/02 10:50:49;;;;;;;;;;;;;;;;;;5111749;28;19915;-76
2023/12/02 10:55:22;;;;;;;;;;;;;;;;;;5111868;27;19922;-76
2023/12/02 10:57:48;;;;;;;;;;;;;;;;;;5111692;28;20002;-75
2023/12/02 11:00:32;;;;;;;;;;;;;;;;;;5111742;27;19916;-76
2023/12/02 11:03:00;;;;;;;;;;;;;;;;;;5111538;28;20384;-75
2023/12/02 11:05:28;;;;;;;;;;;;;;;;;;5111565;28;20367;-75
2023/12/02 11:10:25;;;;;;;;;;;;;;;;;;5111759;27;20329;-76
2023/12/02 11:12:51;;;;;;;;;;;;;;;;;;5111568;28;19975;-76
2023/12/02 11:17:26;;;;;;;;;;;;;;;;;;5092061;27;19974;-75
2023/12/02 11:19:52;;;;;;;;;;;;;;;;;;5091241;28;19912;-75
2023/12/02 11:22:43;;;;;;;;;;;;;;;;;;5111082;27;20437;-77
2023/12/02 11:26:04;;;;;;;;;;;;;;;;;;5111624;27;19935;-76
2023/12/02 11:28:29;;;;;;;;;;;;;;;;;;5111380;28;19912;-76
2023/12/02 11:31:33;;;;;;;;;;;;;;;;;;5091442;27;19917;-77
2023/12/02 11:35:55;;;;;;;;;;;;;;;;;;5071157;28;20307;-75
2023/12/02 11:38:21;;;;;;;;;;;;;;;;;;5071064;28;19999;-75
2023/12/02 11:40:58;;;;;;;;;;;;;;;;;;5111705;27;19926;-76
2023/12/02 11:44:34;;;;;;;;;;;;;;;;;;5092102;27;19916;-76
2023/12/02 11:47:38;;;;;;;;;;;;;;;;;;5071815;28;19919;-76
2023/12/02 11:50:04;;;;;;;;;;;;;;;;;;5070641;28;19999;-76
2023/12/02 11:52:30;;;;;;;;;;;;;;;;;;5071071;28;19927;-76
2023/12/02 11:54:57;;;;;;;;;;;;;;;;;;5070730;28;19913;-77
2023/12/02 11:59:49;;;;;;;;;;;;;;;;;;5112330;27;19916;-76
2023/12/02 12:02:15;;;;;;;;;;;;;;;;;;5111408;28;20066;-76
2023/12/02 12:04:41;;;;;;;;;;;;;;;;;;5111098;28;19953;-75
2023/12/02 12:08:03;;;;;;;;;;;;;;;;;;5152913;27;20002;-75
2023/12/02 12:10:28;;;;;;;;;;;;;;;;;;5152329;27;19969;-75
2023/12/02 12:15:02;;;;;;;;;;;;;;;;;;5112414;27;19919;-76
2023/12/02 12:17:28;;;;;;;;;;;;;;;;;;5111388;28;20375;-76
2023/12/02 12:24:39;;;;;;;;;;;;;;;;;;5091563;27;20291;-77
2023/12/02 12:29:27;;;;;;;;;;;;;;;;;;5091856;27;20283;-77
2023/12/02 12:31:54;;;;;;;;;;;;;;;;;;5090880;28;20051;-76
2023/12/02 12:34:20;;;;;;;;;;;;;;;;;;5091136;28;19947;-76
2023/12/02 12:37:26;;;;;;;;;;;;;;;;;;5111867;27;19934;-76
2023/12/02 12:40:58;;;;;;;;;;;;;;;;;;5091935;27;19974;-76
2023/12/02 12:44:33;;;;;;;;;;;;;;;;;;5092038;27;19923;-76
2023/12/02 12:46:59;;;;;;;;;;;;;;;;;;5090847;28;20330;-75
2023/12/02 12:50:42;;;;;;;;;;;;;;;;;;5091620;27;19923;-75
2023/12/02 12:53:17;;;;;;;;;;;;;;;;;;5111416;27;19916;-75
2023/12/02 12:55:43;;;;;;;;;;;;;;;;;;5111594;28;19912;-75
2023/12/02 13:00:03;;;;;;;;;;;;;;;;;;5111788;27;20384;-76
2023/12/02 13:06:19;;;;;;;;;;;;;;;;;;5112224;27;19916;-75
2023/12/02 13:09:48;;;;;;;;;;;;;;;;;;5153378;27;19915;-76
2023/12/02 13:12:59;;;;;;;;;;;;;;;;;;5091655;27;19912;-75
2023/12/02 13:15:25;;;;;;;;;;;;;;;;;;5089597;28;20432;-75
2023/12/02 13:17:50;;;;;;;;;;;;;;;;;;5091139;28;20265;-76
2023/12/02 13:20:17;;;;;;;;;;;;;;;;;;5091157;28;19913;-75
2023/12/02 13:22:43;;;;;;;;;;;;;;;;;;5090582;28;19908;-75
2023/12/02 13:34:46;;;;;;;;;;;;;;;;;;5111540;27;19916;-76
2023/12/02 13:37:13;;;;;;;;;;;;;;;;;;5111860;28;19950;-75
2023/12/02 13:39:39;;;;;;;;;;;;;;;;;;5111513;28;19909;-75
2023/12/02 13:42:05;;;;;;;;;;;;;;;;;;5111112;28;19912;-75
2023/12/02 13:44:32;;;;;;;;;;;;;;;;;;5111462;28;20324;-76
2023/12/02 13:46:58;;;;;;;;;;;;;;;;;;5111379;28;19961;-76
2023/12/02 13:51:48;;;;;;;;;;;;;;;;;;5071612;28;19923;-75
2023/12/02 13:54:51;;;;;;;;;;;;;;;;;;5091820;28;19917;-75
2023/12/02 13:57:17;;;;;;;;;;;;;;;;;;5090805;28;20003;-75
2023/12/02 13:59:43;;;;;;;;;;;;;;;;;;5091378;28;19909;-75
2023/12/02 14:02:09;;;;;;;;;;;;;;;;;;5089982;28;19908;-75
2023/12/02 14:05:07;;;;;;;;;;;;;;;;;;5111852;27;19916;-76
2023/12/02 14:07:33;;;;;;;;;;;;;;;;;;5111569;28;20320;-76
2023/12/02 14:09:59;;;;;;;;;;;;;;;;;;5111141;28;19916;-76
2023/12/02 14:12:25;;;;;;;;;;;;;;;;;;5111521;28;19912;-76
2023/12/02 14:16:39;;;;;;;;;;;;;;;;;;5091620;28;19923;-75
2023/12/02 14:21:51;;;;;;;;;;;;;;;;;;5112073;27;19916;-76
2023/12/02 14:24:17;;;;;;;;;;;;;;;;;;5111096;28;20003;-75
2023/12/02 14:26:43;;;;;;;;;;;;;;;;;;5111365;28;19991;-75
2023/12/02 14:31:29;;;;;;;;;;;;;;;;;;5091126;27;19918;-76
2023/12/02 14:33:55;;;;;;;;;;;;;;;;;;5091591;28;19916;-76
2023/12/02 14:36:21;;;;;;;;;;;;;;;;;;5091333;28;19909;-76
2023/12/02 14:40:23;;;;;;;;;;;;;;;;;;5091708;27;20388;-76
2023/12/02 14:47:47;;;;;;;;;;;;;;;;;;5111663;27;19922;-76
2023/12/02 14:50:14;;;;;;;;;;;;;;;;;;5111668;28;20006;-77
2023/12/02 14:57:25;;;;;;;;;;;;;;;;;;5112367;27;19922;-77
2023/12/02 14:59:51;;;;;;;;;;;;;;;;;;5111145;28;20387;-77
2023/12/02 15:02:17;;;;;;;;;;;;;;;;;;5111602;28;19908;-77
2023/12/02 15:04:43;;;;;;;;;;;;;;;;;;5111535;28;19931;-76
2023/12/02 15:09:31;;;;;;;;;;;;;;;;;;5071565;28;19917;-77
2023/12/02 15:11:57;;;;;;;;;;;;;;;;;;5071552;28;20004;-77
2023/12/02 15:15:06;;;;;;;;;;;;;;;;;;5091084;27;19916;-75
2023/12/02 15:19:23;;;;;;;;;;;;;;;;;;5071565;28;19923;-74
2023/12/02 15:21:49;;;;;;;;;;;;;;;;;;5070826;28;20299;-76
2023/12/02 15:24:15;;;;;;;;;;;;;;;;;;5070989;28;19971;-75
2023/12/02 15:26:40;;;;;;;;;;;;;;;;;;5070893;28;19909;-78
2023/12/02 15:29:06;;;;;;;;;;;;;;;;;;5069292;28;19909;-77
2023/12/02 15:31:32;;;;;;;;;;;;;;;;;;5071163;28;20004;-76
2023/12/02 15:33:59;;;;;;;;;;;;;;;;;;5070963;28;19909;-77
2023/12/02 15:36:25;;;;;;;;;;;;;;;;;;5070589;28;19909;-77
2023/12/02 15:38:51;;;;;;;;;;;;;;;;;;5069395;28;19940;-78
2023/12/02 15:41:17;;;;;;;;;;;;;;;;;;5069137;28;19908;-77
2023/12/02 15:43:43;;;;;;;;;;;;;;;;;;5070775;28;19913;-77
2023/12/02 15:46:09;;;;;;;;;;;;;;;;;;5070976;28;19908;-77
2023/12/02 15:48:35;;;;;;;;;;;;;;;;;;5070189;28;20368;-77
2023/12/02 15:51:01;;;;;;;;;;;;;;;;;;5070641;28;20364;-77
2023/12/02 15:53:27;;;;;;;;;;;;;;;;;;5070648;28;20396;-77
2023/12/02 15:55:53;;;;;;;;;;;;;;;;;;5070294;28;20356;-77
2023/12/02 15:58:18;;;;;;;;;;;;;;;;;;5070740;28;20270;-76
2023/12/02 16:00:44;;;;;;;;;;;;;;;;;;5070379;28;20332;-77
2023/12/02 16:03:10;;;;;;;;;;;;;;;;;;5070553;28;20368;-76
2023/12/02 16:05:36;;;;;;;;;;;;;;;;;;5068994;28;20388;-77
2023/12/02 16:08:02;;;;;;;;;;;;;;;;;;5070213;28;19920;-76
2023/12/02 16:10:28;;;;;;;;;;;;;;;;;;5069718;28;19909;-77
2023/12/02 16:12:54;;;;;;;;;;;;;;;;;;5070596;28;19908;-77
2023/12/02 16:15:20;;;;;;;;;;;;;;;;;;5069980;28;19909;-76
2023/12/02 16:17:46;;;;;;;;;;;;;;;;;;5069375;28;20027;-76
2023/12/02 16:20:13;;;;;;;;;;;;;;;;;;5069971;28;19920;-76
2023/12/02 16:22:39;;;;;;;;;;;;;;;;;;5070248;28;19974;-76
2023/12/02 16:25:06;;;;;;;;;;;;;;;;;;5069359;28;20320;-77
2023/12/02 16:27:32;;;;;;;;;;;;;;;;;;5070372;28;19908;-76
2023/12/02 16:29:58;;;;;;;;;;;;;;;;;;5060633;28;19916;-77
2023/12/02 16:32:24;;;;;;;;;;;;;;;;;;5056164;28;19916;-76
2023/12/02 16:34:50;;;;;;;;;;;;;;;;;;5053648;28;19915;-77
2023/12/02 16:37:19;;;;;;;;;;;;;;;;;;5055776;28;19912;-77
2023/12/02 16:39:45;;;;;;;;;;;;;;;;;;5055444;28;19920;-77
2023/12/02 16:42:10;;;;;;;;;;;;;;;;;;5056443;28;19908;-77
2023/12/02 16:44:36;;;;;;;;;;;;;;;;;;5055866;28;19962;-77
2023/12/02 16:47:02;;;;;;;;;;;;;;;;;;5055790;28;20019;-77
2023/12/02 16:49:28;;;;;;;;;;;;;;;;;;5056240;28;19908;-76
2023/12/02 16:51:56;;;;;;;;;;;;;;;;;;5055711;28;19916;-76
2023/12/02 16:54:22;;;;;;;;;;;;;;;;;;5056110;28;19962;-76
2023/12/02 16:56:48;;;;;;;;;;;;;;;;;;5056158;28;19995;-77
2023/12/02 16:59:14;;;;;;;;;;;;;;;;;;5055652;28;19917;-76
2023/12/02 17:01:40;;;;;;;;;;;;;;;;;;5055917;28;19963;-76
2023/12/02 17:04:06;;;;;;;;;;;;;;;;;;5055916;28;19913;-76
2023/12/02 17:06:31;;;;;;;;;;;;;;;;;;5055518;28;20257;-76
2023/12/02 17:08:57;;;;;;;;;;;;;;;;;;5055894;28;19908;-76
2023/12/02 17:11:25;;;;;;;;;;;;;;;;;;5055806;28;19909;-77
2023/12/02 17:13:51;;;;;;;;;;;;;;;;;;5055414;28;19909;-77
2023/12/02 17:16:17;;;;;;;;;;;;;;;;;;5055737;28;19971;-77
2023/12/02 17:18:43;;;;;;;;;;;;;;;;;;5055456;28;20338;-77
2023/12/02 17:21:09;;;;;;;;;;;;;;;;;;5055311;28;20327;-77
2023/12/02 17:23:35;;;;;;;;;;;;;;;;;;5055659;28;20325;-77
2023/12/02 17:26:02;;;;;;;;;;;;;;;;;;5055823;28;19947;-77
2023/12/02 17:28:28;;;;;;;;;;;;;;;;;;5055161;28;19951;-77
2023/12/02 17:30:54;;;;;;;;;;;;;;;;;;5055486;28;19909;-77
2023/12/02 17:33:20;;;;;;;;;;;;;;;;;;5055452;28;20003;-78
2023/12/02 17:35:46;;;;;;;;;;;;;;;;;;5054990;28;19958;-77
2023/12/02 17:38:12;;;;;;;;;;;;;;;;;;5055234;28;20004;-77
2023/12/02 17:40:38;;;;;;;;;;;;;;;;;;5054514;28;19916;-77
2023/12/02 17:43:03;;;;;;;;;;;;;;;;;;5055012;28;19908;-77
2023/12/02 17:45:29;;;;;;;;;;;;;;;;;;5053888;28;19916;-77
2023/12/02 17:47:55;;;;;;;;;;;;;;;;;;5054694;28;19909;-77
2023/12/02 17:50:21;;;;;;;;;;;;;;;;;;5055089;28;19931;-76
2023/12/02 17:52:47;;;;;;;;;;;;;;;;;;5055338;28;20004;-77
2023/12/02 17:55:13;;;;;;;;;;;;;;;;;;5054643;28;19948;-77
2023/12/02 17:57:39;;;;;;;;;;;;;;;;;;5054853;28;19979;-77
2023/12/02 18:00:05;;;;;;;;;;;;;;;;;;5054928;28;19909;-77
2023/12/02 18:02:31;;;;;;;;;;;;;;;;;;5054417;28;19909;-77
2023/12/02 18:04:57;;;;;;;;;;;;;;;;;;5054837;28;20280;-77
2023/12/02 18:07:24;;;;;;;;;;;;;;;;;;5054660;28;19909;-77
2023/12/02 18:09:50;;;;;;;;;;;;;;;;;;5054227;28;19916;-76
2023/12/02 18:12:16;;;;;;;;;;;;;;;;;;5054580;28;19909;-76
2023/12/02 18:14:42;;;;;;;;;;;;;;;;;;5054476;28;19912;-76
2023/12/02 18:17:08;;;;;;;;;;;;;;;;;;5053917;28;19916;-76